sensor_id;sensor_type;location;lat;lon;timestamp;P1;durP1;ratioP1;P2;durP2;ratioP2
2558;SDS011;1289;53.488;10.006;2022-10-17T00:02:02;8.47;;;7.60;;
2558;SDS011;1289;53.488;10.006;2022-10-17T00:04:28;11.47;;;7.70;;
2558;SDS011;1289;53.488;10.006;2022-10-17T00:06:55;10.90;;;7.60;;
2558;SDS011;1289;53.488;10.006;2022-10-17T00:09:21;8.67;;;7.93;;
2558;SDS011;1289;53.488;10.006;2022-10-17T00:11:48;11.00;;;7.23;;
2558;SDS011;1289;53.488;10.006;2022-10-17T00:14:14;7.77;;;7.17;;
2558;SDS011;1289;53.488;10.006;2022-10-17T00:16:41;8.37;;;7.60;;
2558;SDS011;1289;53.488;10.006;2022-10-17T00:19:09;8.87;;;7.87;;
2558;SDS011;1289;53.488;10.006;2022-10-17T00:21:36;9.37;;;8.40;;
2558;SDS011;1289;53.488;10.006;2022-10-17T00:24:02;8.63;;;7.90;;
2558;SDS011;1289;53.488;10.006;2022-10-17T00:26:29;9.90;;;8.27;;
2558;SDS011;1289;53.488;10.006;2022-10-17T00:28:56;11.53;;;8.57;;
2558;SDS011;1289;53.488;10.006;2022-10-17T00:31:23;8.77;;;7.97;;
2558;SDS011;1289;53.488;10.006;2022-10-17T00:33:50;8.30;;;7.23;;
2558;SDS011;1289;53.488;10.006;2022-10-17T00:36:19;9.60;;;8.70;;
2558;SDS011;1289;53.488;10.006;2022-10-17T00:38:48;11.57;;;7.80;;
2558;SDS011;1289;53.488;10.006;2022-10-17T00:41:17;11.00;;;9.27;;
2558;SDS011;1289;53.488;10.006;2022-10-17T00:43:53;8.40;;;7.70;;
2558;SDS011;1289;53.488;10.006;2022-10-17T00:46:22;8.50;;;7.70;;
2558;SDS011;1289;53.488;10.006;2022-10-17T00:48:53;9.20;;;8.30;;
2558;SDS011;1289;53.488;10.006;2022-10-17T00:51:23;8.27;;;7.47;;
2558;SDS011;1289;53.488;10.006;2022-10-17T00:53:54;8.20;;;7.40;;
2558;SDS011;1289;53.488;10.006;2022-10-17T00:56:21;8.17;;;7.47;;
2558;SDS011;1289;53.488;10.006;2022-10-17T00:58:48;9.03;;;7.67;;
2558;SDS011;1289;53.488;10.006;2022-10-17T01:01:14;11.80;;;8.03;;
2558;SDS011;1289;53.488;10.006;2022-10-17T01:03:41;7.90;;;7.10;;
2558;SDS011;1289;53.488;10.006;2022-10-17T01:06:08;7.77;;;7.17;;
2558;SDS011;1289;53.488;10.006;2022-10-17T01:08:36;7.53;;;6.93;;
2558;SDS011;1289;53.488;10.006;2022-10-17T01:11:04;8.50;;;7.80;;
2558;SDS011;1289;53.488;10.006;2022-10-17T01:13:38;7.67;;;6.97;;
2558;SDS011;1289;53.488;10.006;2022-10-17T01:16:10;9.43;;;7.00;;
2558;SDS011;1289;53.488;10.006;2022-10-17T01:18:44;11.80;;;8.70;;
2558;SDS011;1289;53.488;10.006;2022-10-17T01:21:24;9.93;;;7.67;;
2558;SDS011;1289;53.488;10.006;2022-10-17T01:24:09;23.20;;;7.80;;
2558;SDS011;1289;53.488;10.006;2022-10-17T01:27:07;11.43;;;8.33;;
2558;SDS011;1289;53.488;10.006;2022-10-17T01:32:37;10.33;;;6.93;;
2558;SDS011;1289;53.488;10.006;2022-10-17T01:35:08;7.83;;;7.13;;
2558;SDS011;1289;53.488;10.006;2022-10-17T01:37:37;7.17;;;6.57;;
2558;SDS011;1289;53.488;10.006;2022-10-17T01:40:06;9.83;;;7.50;;
2558;SDS011;1289;53.488;10.006;2022-10-17T01:42:36;10.37;;;6.47;;
2558;SDS011;1289;53.488;10.006;2022-10-17T01:45:08;8.53;;;6.90;;
2558;SDS011;1289;53.488;10.006;2022-10-17T01:47:39;7.03;;;6.20;;
2558;SDS011;1289;53.488;10.006;2022-10-17T01:50:10;7.13;;;6.57;;
2558;SDS011;1289;53.488;10.006;2022-10-17T01:52:41;7.00;;;6.50;;
2558;SDS011;1289;53.488;10.006;2022-10-17T01:55:11;7.13;;;6.53;;
2558;SDS011;1289;53.488;10.006;2022-10-17T01:57:41;8.53;;;7.77;;
2558;SDS011;1289;53.488;10.006;2022-10-17T02:00:11;8.13;;;7.33;;
2558;SDS011;1289;53.488;10.006;2022-10-17T02:02:42;8.80;;;7.87;;
2558;SDS011;1289;53.488;10.006;2022-10-17T02:05:10;8.03;;;7.30;;
2558;SDS011;1289;53.488;10.006;2022-10-17T02:07:39;11.70;;;7.57;;
2558;SDS011;1289;53.488;10.006;2022-10-17T02:10:08;8.53;;;7.83;;
2558;SDS011;1289;53.488;10.006;2022-10-17T02:12:44;8.30;;;7.50;;
2558;SDS011;1289;53.488;10.006;2022-10-17T02:18:05;8.37;;;7.30;;
2558;SDS011;1289;53.488;10.006;2022-10-17T02:20:42;8.30;;;7.47;;
2558;SDS011;1289;53.488;10.006;2022-10-17T02:23:12;7.27;;;6.67;;
2558;SDS011;1289;53.488;10.006;2022-10-17T02:25:46;7.93;;;7.13;;
2558;SDS011;1289;53.488;10.006;2022-10-17T02:28:18;7.87;;;7.17;;
2558;SDS011;1289;53.488;10.006;2022-10-17T02:30:48;7.10;;;6.50;;
2558;SDS011;1289;53.488;10.006;2022-10-17T02:33:19;10.23;;;7.77;;
2558;SDS011;1289;53.488;10.006;2022-10-17T02:35:48;7.73;;;6.87;;
2558;SDS011;1289;53.488;10.006;2022-10-17T02:38:17;8.30;;;7.70;;
2558;SDS011;1289;53.488;10.006;2022-10-17T02:40:45;8.00;;;7.30;;
2558;SDS011;1289;53.488;10.006;2022-10-17T02:43:12;7.50;;;6.90;;
2558;SDS011;1289;53.488;10.006;2022-10-17T02:45:39;8.00;;;7.20;;
2558;SDS011;1289;53.488;10.006;2022-10-17T02:48:09;7.03;;;6.33;;
2558;SDS011;1289;53.488;10.006;2022-10-17T02:50:51;6.73;;;6.13;;
2558;SDS011;1289;53.488;10.006;2022-10-17T02:53:24;9.77;;;7.40;;
2558;SDS011;1289;53.488;10.006;2022-10-17T02:55:55;7.50;;;6.90;;
2558;SDS011;1289;53.488;10.006;2022-10-17T02:58:24;7.23;;;6.53;;
2558;SDS011;1289;53.488;10.006;2022-10-17T03:00:53;7.07;;;6.47;;
2558;SDS011;1289;53.488;10.006;2022-10-17T03:03:21;6.20;;;5.77;;
2558;SDS011;1289;53.488;10.006;2022-10-17T03:05:51;6.40;;;5.80;;
2558;SDS011;1289;53.488;10.006;2022-10-17T03:08:21;6.50;;;6.00;;
2558;SDS011;1289;53.488;10.006;2022-10-17T03:10:48;7.07;;;6.53;;
2558;SDS011;1289;53.488;10.006;2022-10-17T03:13:15;7.70;;;6.43;;
2558;SDS011;1289;53.488;10.006;2022-10-17T03:15:43;6.53;;;5.97;;
2558;SDS011;1289;53.488;10.006;2022-10-17T03:18:10;7.50;;;6.80;;
2558;SDS011;1289;53.488;10.006;2022-10-17T03:20:36;6.77;;;6.17;;
2558;SDS011;1289;53.488;10.006;2022-10-17T03:23:04;7.00;;;6.40;;
2558;SDS011;1289;53.488;10.006;2022-10-17T03:25:31;7.63;;;5.53;;
2558;SDS011;1289;53.488;10.006;2022-10-17T03:27:58;6.83;;;6.10;;
2558;SDS011;1289;53.488;10.006;2022-10-17T03:30:25;8.77;;;6.30;;
2558;SDS011;1289;53.488;10.006;2022-10-17T03:32:53;9.73;;;6.07;;
2558;SDS011;1289;53.488;10.006;2022-10-17T03:35:19;6.47;;;5.87;;
2558;SDS011;1289;53.488;10.006;2022-10-17T03:37:48;5.97;;;5.57;;
2558;SDS011;1289;53.488;10.006;2022-10-17T03:40:17;6.80;;;6.33;;
2558;SDS011;1289;53.488;10.006;2022-10-17T03:42:43;6.40;;;5.90;;
2558;SDS011;1289;53.488;10.006;2022-10-17T03:45:10;5.90;;;5.40;;
2558;SDS011;1289;53.488;10.006;2022-10-17T03:47:36;5.97;;;5.47;;
2558;SDS011;1289;53.488;10.006;2022-10-17T03:50:03;5.93;;;5.43;;
2558;SDS011;1289;53.488;10.006;2022-10-17T03:52:33;6.63;;;6.03;;
2558;SDS011;1289;53.488;10.006;2022-10-17T03:55:01;5.93;;;5.53;;
2558;SDS011;1289;53.488;10.006;2022-10-17T03:57:30;6.17;;;5.67;;
2558;SDS011;1289;53.488;10.006;2022-10-17T03:59:57;6.30;;;5.80;;
2558;SDS011;1289;53.488;10.006;2022-10-17T04:02:23;5.40;;;5.00;;
2558;SDS011;1289;53.488;10.006;2022-10-17T04:04:50;6.40;;;5.80;;
2558;SDS011;1289;53.488;10.006;2022-10-17T04:07:17;5.73;;;5.00;;
2558;SDS011;1289;53.488;10.006;2022-10-17T04:09:46;5.50;;;4.93;;
2558;SDS011;1289;53.488;10.006;2022-10-17T04:12:17;9.07;;;5.50;;
2558;SDS011;1289;53.488;10.006;2022-10-17T04:14:45;5.23;;;4.93;;
2558;SDS011;1289;53.488;10.006;2022-10-17T04:17:13;7.53;;;6.70;;
2558;SDS011;1289;53.488;10.006;2022-10-17T04:19:39;5.80;;;5.30;;
2558;SDS011;1289;53.488;10.006;2022-10-17T04:22:07;5.93;;;5.33;;
2558;SDS011;1289;53.488;10.006;2022-10-17T04:24:35;5.43;;;5.03;;
2558;SDS011;1289;53.488;10.006;2022-10-17T04:27:15;7.73;;;5.10;;
2558;SDS011;1289;53.488;10.006;2022-10-17T04:29:45;6.10;;;5.70;;
2558;SDS011;1289;53.488;10.006;2022-10-17T04:32:19;6.03;;;5.50;;
2558;SDS011;1289;53.488;10.006;2022-10-17T04:34:52;6.73;;;6.07;;
2558;SDS011;1289;53.488;10.006;2022-10-17T04:37:20;5.43;;;5.03;;
2558;SDS011;1289;53.488;10.006;2022-10-17T04:39:49;5.63;;;5.23;;
2558;SDS011;1289;53.488;10.006;2022-10-17T04:42:15;5.57;;;5.13;;
2558;SDS011;1289;53.488;10.006;2022-10-17T04:44:42;5.53;;;5.13;;
2558;SDS011;1289;53.488;10.006;2022-10-17T04:47:10;5.20;;;4.80;;
2558;SDS011;1289;53.488;10.006;2022-10-17T04:49:37;6.23;;;5.63;;
2558;SDS011;1289;53.488;10.006;2022-10-17T04:52:08;5.87;;;5.37;;
2558;SDS011;1289;53.488;10.006;2022-10-17T04:54:43;5.87;;;5.30;;
2558;SDS011;1289;53.488;10.006;2022-10-17T04:57:11;6.47;;;5.97;;
2558;SDS011;1289;53.488;10.006;2022-10-17T04:59:40;6.00;;;5.50;;
2558;SDS011;1289;53.488;10.006;2022-10-17T05:02:23;6.67;;;5.20;;
2558;SDS011;1289;53.488;10.006;2022-10-17T05:04:50;7.47;;;6.27;;
2558;SDS011;1289;53.488;10.006;2022-10-17T05:07:18;5.90;;;5.47;;
2558;SDS011;1289;53.488;10.006;2022-10-17T05:10:00;5.87;;;5.47;;
2558;SDS011;1289;53.488;10.006;2022-10-17T05:12:28;6.53;;;5.33;;
2558;SDS011;1289;53.488;10.006;2022-10-17T05:14:54;6.10;;;5.60;;
2558;SDS011;1289;53.488;10.006;2022-10-17T05:17:25;6.37;;;5.77;;
2558;SDS011;1289;53.488;10.006;2022-10-17T05:19:51;6.50;;;5.90;;
2558;SDS011;1289;53.488;10.006;2022-10-17T05:22:18;5.43;;;5.03;;
2558;SDS011;1289;53.488;10.006;2022-10-17T05:24:45;5.27;;;4.90;;
2558;SDS011;1289;53.488;10.006;2022-10-17T05:27:12;6.40;;;5.90;;
2558;SDS011;1289;53.488;10.006;2022-10-17T05:29:39;6.23;;;5.53;;
2558;SDS011;1289;53.488;10.006;2022-10-17T05:32:18;5.70;;;5.30;;
2558;SDS011;1289;53.488;10.006;2022-10-17T05:34:46;5.70;;;5.30;;
2558;SDS011;1289;53.488;10.006;2022-10-17T05:37:12;5.97;;;5.47;;
2558;SDS011;1289;53.488;10.006;2022-10-17T05:39:43;5.90;;;5.40;;
2558;SDS011;1289;53.488;10.006;2022-10-17T05:42:10;7.33;;;6.83;;
2558;SDS011;1289;53.488;10.006;2022-10-17T05:44:36;6.67;;;6.07;;
2558;SDS011;1289;53.488;10.006;2022-10-17T05:47:06;5.93;;;5.53;;
2558;SDS011;1289;53.488;10.006;2022-10-17T05:49:32;6.50;;;6.00;;
2558;SDS011;1289;53.488;10.006;2022-10-17T05:52:01;6.33;;;5.83;;
2558;SDS011;1289;53.488;10.006;2022-10-17T05:54:32;6.60;;;6.10;;
2558;SDS011;1289;53.488;10.006;2022-10-17T05:56:59;7.13;;;5.77;;
2558;SDS011;1289;53.488;10.006;2022-10-17T05:59:29;6.73;;;5.87;;
2558;SDS011;1289;53.488;10.006;2022-10-17T06:02:17;8.13;;;6.63;;
2558;SDS011;1289;53.488;10.006;2022-10-17T06:04:44;7.27;;;6.57;;
2558;SDS011;1289;53.488;10.006;2022-10-17T06:07:14;7.70;;;6.67;;
2558;SDS011;1289;53.488;10.006;2022-10-17T06:09:42;8.23;;;6.27;;
2558;SDS011;1289;53.488;10.006;2022-10-17T06:12:09;8.23;;;7.30;;
2558;SDS011;1289;53.488;10.006;2022-10-17T06:14:36;7.70;;;6.90;;
2558;SDS011;1289;53.488;10.006;2022-10-17T06:17:05;7.63;;;6.93;;
2558;SDS011;1289;53.488;10.006;2022-10-17T06:19:31;9.20;;;8.27;;
2558;SDS011;1289;53.488;10.006;2022-10-17T06:21:58;7.80;;;7.17;;
2558;SDS011;1289;53.488;10.006;2022-10-17T06:24:27;7.30;;;6.80;;
2558;SDS011;1289;53.488;10.006;2022-10-17T06:26:55;6.93;;;6.33;;
2558;SDS011;1289;53.488;10.006;2022-10-17T06:29:22;10.10;;;6.87;;
2558;SDS011;1289;53.488;10.006;2022-10-17T06:31:50;7.70;;;7.10;;
2558;SDS011;1289;53.488;10.006;2022-10-17T06:34:18;8.20;;;7.40;;
2558;SDS011;1289;53.488;10.006;2022-10-17T06:36:45;7.20;;;6.60;;
2558;SDS011;1289;53.488;10.006;2022-10-17T06:39:12;8.30;;;7.60;;
2558;SDS011;1289;53.488;10.006;2022-10-17T06:41:46;7.87;;;7.27;;
2558;SDS011;1289;53.488;10.006;2022-10-17T06:44:16;8.77;;;8.07;;
2558;SDS011;1289;53.488;10.006;2022-10-17T06:47:15;8.77;;;8.07;;
2558;SDS011;1289;53.488;10.006;2022-10-17T06:49:42;9.13;;;7.87;;
2558;SDS011;1289;53.488;10.006;2022-10-17T06:52:24;8.87;;;8.00;;
2558;SDS011;1289;53.488;10.006;2022-10-17T06:55:16;8.40;;;7.40;;
2558;SDS011;1289;53.488;10.006;2022-10-17T06:58:07;7.80;;;7.20;;
2558;SDS011;1289;53.488;10.006;2022-10-17T07:00:45;7.63;;;6.87;;
2558;SDS011;1289;53.488;10.006;2022-10-17T07:03:12;7.43;;;6.80;;
2558;SDS011;1289;53.488;10.006;2022-10-17T07:05:39;6.90;;;6.40;;
2558;SDS011;1289;53.488;10.006;2022-10-17T07:08:05;7.80;;;6.83;;
2558;SDS011;1289;53.488;10.006;2022-10-17T07:10:36;7.13;;;6.43;;
2558;SDS011;1289;53.488;10.006;2022-10-17T07:13:05;7.23;;;6.60;;
2558;SDS011;1289;53.488;10.006;2022-10-17T07:15:34;6.90;;;6.30;;
2558;SDS011;1289;53.488;10.006;2022-10-17T07:18:01;6.87;;;6.30;;
2558;SDS011;1289;53.488;10.006;2022-10-17T07:20:28;7.13;;;6.53;;
2558;SDS011;1289;53.488;10.006;2022-10-17T07:22:55;6.80;;;6.30;;
2558;SDS011;1289;53.488;10.006;2022-10-17T07:25:22;6.53;;;6.03;;
2558;SDS011;1289;53.488;10.006;2022-10-17T07:27:53;7.37;;;5.53;;
2558;SDS011;1289;53.488;10.006;2022-10-17T07:30:20;6.20;;;5.70;;
2558;SDS011;1289;53.488;10.006;2022-10-17T07:32:57;7.10;;;6.40;;
2558;SDS011;1289;53.488;10.006;2022-10-17T07:35:23;6.90;;;6.37;;
2558;SDS011;1289;53.488;10.006;2022-10-17T07:37:51;6.27;;;5.67;;
2558;SDS011;1289;53.488;10.006;2022-10-17T07:40:19;6.63;;;6.00;;
2558;SDS011;1289;53.488;10.006;2022-10-17T07:42:46;6.30;;;5.80;;
2558;SDS011;1289;53.488;10.006;2022-10-17T07:45:13;6.80;;;5.80;;
2558;SDS011;1289;53.488;10.006;2022-10-17T07:47:40;7.53;;;6.87;;
2558;SDS011;1289;53.488;10.006;2022-10-17T07:50:10;7.13;;;6.53;;
2558;SDS011;1289;53.488;10.006;2022-10-17T07:52:36;7.00;;;6.40;;
2558;SDS011;1289;53.488;10.006;2022-10-17T07:55:03;6.87;;;6.30;;
2558;SDS011;1289;53.488;10.006;2022-10-17T07:57:31;6.33;;;5.77;;
2558;SDS011;1289;53.488;10.006;2022-10-17T07:59:58;6.53;;;4.80;;
2558;SDS011;1289;53.488;10.006;2022-10-17T08:02:25;5.27;;;4.83;;
2558;SDS011;1289;53.488;10.006;2022-10-17T08:04:52;5.60;;;5.10;;
2558;SDS011;1289;53.488;10.006;2022-10-17T08:07:20;5.40;;;5.00;;
2558;SDS011;1289;53.488;10.006;2022-10-17T08:09:47;5.80;;;4.80;;
2558;SDS011;1289;53.488;10.006;2022-10-17T08:12:14;5.17;;;4.83;;
2558;SDS011;1289;53.488;10.006;2022-10-17T08:14:41;5.50;;;5.00;;
2558;SDS011;1289;53.488;10.006;2022-10-17T08:17:08;5.43;;;5.03;;
2558;SDS011;1289;53.488;10.006;2022-10-17T08:19:36;5.60;;;5.10;;
2558;SDS011;1289;53.488;10.006;2022-10-17T08:22:03;5.27;;;4.87;;
2558;SDS011;1289;53.488;10.006;2022-10-17T08:24:31;5.47;;;4.97;;
2558;SDS011;1289;53.488;10.006;2022-10-17T08:26:58;5.40;;;4.90;;
2558;SDS011;1289;53.488;10.006;2022-10-17T08:29:25;4.73;;;4.43;;
2558;SDS011;1289;53.488;10.006;2022-10-17T08:31:52;5.30;;;4.80;;
2558;SDS011;1289;53.488;10.006;2022-10-17T08:34:18;5.90;;;5.30;;
2558;SDS011;1289;53.488;10.006;2022-10-17T08:36:45;5.13;;;4.70;;
2558;SDS011;1289;53.488;10.006;2022-10-17T08:39:11;5.30;;;4.90;;
2558;SDS011;1289;53.488;10.006;2022-10-17T08:41:42;7.27;;;5.57;;
2558;SDS011;1289;53.488;10.006;2022-10-17T08:44:18;5.50;;;5.00;;
2558;SDS011;1289;53.488;10.006;2022-10-17T08:46:48;5.30;;;4.80;;
2558;SDS011;1289;53.488;10.006;2022-10-17T08:49:18;5.67;;;5.27;;
2558;SDS011;1289;53.488;10.006;2022-10-17T08:51:50;4.93;;;4.60;;
2558;SDS011;1289;53.488;10.006;2022-10-17T08:54:21;5.53;;;5.13;;
2558;SDS011;1289;53.488;10.006;2022-10-17T08:56:53;5.10;;;4.70;;
2558;SDS011;1289;53.488;10.006;2022-10-17T08:59:22;5.27;;;4.87;;
2558;SDS011;1289;53.488;10.006;2022-10-17T09:01:55;5.53;;;4.60;;
2558;SDS011;1289;53.488;10.006;2022-10-17T09:04:38;5.20;;;4.80;;
2558;SDS011;1289;53.488;10.006;2022-10-17T09:07:12;5.33;;;4.83;;
2558;SDS011;1289;53.488;10.006;2022-10-17T09:09:44;5.20;;;4.70;;
2558;SDS011;1289;53.488;10.006;2022-10-17T09:12:19;5.00;;;4.50;;
2558;SDS011;1289;53.488;10.006;2022-10-17T09:15:10;4.37;;;3.97;;
2558;SDS011;1289;53.488;10.006;2022-10-17T09:18:10;8.73;;;4.50;;
2558;SDS011;1289;53.488;10.006;2022-10-17T09:20:39;4.90;;;4.40;;
2558;SDS011;1289;53.488;10.006;2022-10-17T09:23:10;4.77;;;4.37;;
2558;SDS011;1289;53.488;10.006;2022-10-17T09:25:40;6.80;;;4.33;;
2558;SDS011;1289;53.488;10.006;2022-10-17T09:28:11;5.23;;;4.10;;
2558;SDS011;1289;53.488;10.006;2022-10-17T09:30:41;6.00;;;4.47;;
2558;SDS011;1289;53.488;10.006;2022-10-17T09:33:09;5.10;;;4.50;;
2558;SDS011;1289;53.488;10.006;2022-10-17T09:35:37;6.60;;;4.40;;
2558;SDS011;1289;53.488;10.006;2022-10-17T09:38:06;6.00;;;4.30;;
2558;SDS011;1289;53.488;10.006;2022-10-17T09:40:39;7.47;;;4.50;;
2558;SDS011;1289;53.488;10.006;2022-10-17T09:43:05;5.30;;;4.37;;
2558;SDS011;1289;53.488;10.006;2022-10-17T09:45:35;4.50;;;4.20;;
2558;SDS011;1289;53.488;10.006;2022-10-17T09:48:10;4.23;;;3.93;;
2558;SDS011;1289;53.488;10.006;2022-10-17T09:50:43;4.53;;;4.10;;
2558;SDS011;1289;53.488;10.006;2022-10-17T09:53:12;5.40;;;4.80;;
2558;SDS011;1289;53.488;10.006;2022-10-17T09:55:41;6.03;;;4.27;;
2558;SDS011;1289;53.488;10.006;2022-10-17T09:58:09;4.87;;;4.37;;
2558;SDS011;1289;53.488;10.006;2022-10-17T10:00:38;7.53;;;4.17;;
2558;SDS011;1289;53.488;10.006;2022-10-17T10:03:07;4.23;;;3.90;;
2558;SDS011;1289;53.488;10.006;2022-10-17T10:05:39;4.43;;;4.13;;
2558;SDS011;1289;53.488;10.006;2022-10-17T10:08:11;4.50;;;4.10;;
2558;SDS011;1289;53.488;10.006;2022-10-17T10:10:39;5.30;;;4.20;;
2558;SDS011;1289;53.488;10.006;2022-10-17T10:13:15;4.53;;;4.13;;
2558;SDS011;1289;53.488;10.006;2022-10-17T10:15:46;4.80;;;4.33;;
2558;SDS011;1289;53.488;10.006;2022-10-17T10:21:04;4.77;;;4.10;;
2558;SDS011;1289;53.488;10.006;2022-10-17T10:23:36;4.53;;;4.13;;
2558;SDS011;1289;53.488;10.006;2022-10-17T10:26:09;4.37;;;3.80;;
2558;SDS011;1289;53.488;10.006;2022-10-17T10:28:49;5.90;;;4.90;;
2558;SDS011;1289;53.488;10.006;2022-10-17T10:31:23;7.87;;;4.50;;
2558;SDS011;1289;53.488;10.006;2022-10-17T10:33:51;9.10;;;5.00;;
2558;SDS011;1289;53.488;10.006;2022-10-17T10:36:18;6.40;;;5.00;;
2558;SDS011;1289;53.488;10.006;2022-10-17T10:38:50;6.73;;;4.90;;
2558;SDS011;1289;53.488;10.006;2022-10-17T10:41:17;5.23;;;4.73;;
2558;SDS011;1289;53.488;10.006;2022-10-17T10:43:44;19.13;;;5.83;;
2558;SDS011;1289;53.488;10.006;2022-10-17T10:46:15;7.60;;;5.60;;
2558;SDS011;1289;53.488;10.006;2022-10-17T10:48:50;7.93;;;4.40;;
2558;SDS011;1289;53.488;10.006;2022-10-17T10:51:18;5.73;;;5.00;;
2558;SDS011;1289;53.488;10.006;2022-10-17T10:53:48;9.33;;;5.43;;
2558;SDS011;1289;53.488;10.006;2022-10-17T10:56:17;5.27;;;4.87;;
2558;SDS011;1289;53.488;10.006;2022-10-17T10:58:48;6.27;;;5.20;;
2558;SDS011;1289;53.488;10.006;2022-10-17T11:01:20;5.17;;;4.67;;
2558;SDS011;1289;53.488;10.006;2022-10-17T11:03:59;5.90;;;5.10;;
2558;SDS011;1289;53.488;10.006;2022-10-17T11:06:43;10.20;;;5.50;;
2558;SDS011;1289;53.488;10.006;2022-10-17T11:09:12;12.50;;;6.03;;
2558;SDS011;1289;53.488;10.006;2022-10-17T11:11:46;9.87;;;5.70;;
2558;SDS011;1289;53.488;10.006;2022-10-17T11:14:17;7.77;;;5.20;;
2558;SDS011;1289;53.488;10.006;2022-10-17T11:16:48;10.73;;;5.00;;
2558;SDS011;1289;53.488;10.006;2022-10-17T11:19:19;12.60;;;5.20;;
2558;SDS011;1289;53.488;10.006;2022-10-17T11:22:02;5.93;;;4.40;;
2558;SDS011;1289;53.488;10.006;2022-10-17T11:24:33;9.03;;;5.00;;
2558;SDS011;1289;53.488;10.006;2022-10-17T11:27:03;22.13;;;6.60;;
2558;SDS011;1289;53.488;10.006;2022-10-17T11:29:31;22.93;;;6.30;;
2558;SDS011;1289;53.488;10.006;2022-10-17T11:32:00;15.03;;;5.83;;
2558;SDS011;1289;53.488;10.006;2022-10-17T11:34:30;7.83;;;4.70;;
2558;SDS011;1289;53.488;10.006;2022-10-17T11:36:58;12.50;;;5.37;;
2558;SDS011;1289;53.488;10.006;2022-10-17T11:39:30;9.03;;;4.67;;
2558;SDS011;1289;53.488;10.006;2022-10-17T11:42:09;24.50;;;5.90;;
2558;SDS011;1289;53.488;10.006;2022-10-17T11:44:38;6.37;;;4.83;;
2558;SDS011;1289;53.488;10.006;2022-10-17T11:47:10;7.40;;;5.00;;
2558;SDS011;1289;53.488;10.006;2022-10-17T11:49:41;6.60;;;5.13;;
2558;SDS011;1289;53.488;10.006;2022-10-17T11:52:15;5.80;;;5.20;;
2558;SDS011;1289;53.488;10.006;2022-10-17T11:54:49;18.50;;;5.97;;
2558;SDS011;1289;53.488;10.006;2022-10-17T11:57:27;11.07;;;5.33;;
2558;SDS011;1289;53.488;10.006;2022-10-17T12:00:07;14.83;;;5.83;;
2558;SDS011;1289;53.488;10.006;2022-10-17T12:02:45;27.97;;;7.30;;
2558;SDS011;1289;53.488;10.006;2022-10-17T12:05:19;26.90;;;6.47;;
2558;SDS011;1289;53.488;10.006;2022-10-17T12:07:50;22.13;;;5.97;;
2558;SDS011;1289;53.488;10.006;2022-10-17T12:10:23;18.33;;;6.57;;
2558;SDS011;1289;53.488;10.006;2022-10-17T12:12:56;53.97;;;8.13;;
2558;SDS011;1289;53.488;10.006;2022-10-17T12:15:27;22.03;;;5.50;;
2558;SDS011;1289;53.488;10.006;2022-10-17T12:17:55;15.80;;;5.97;;
2558;SDS011;1289;53.488;10.006;2022-10-17T12:20:30;14.53;;;5.50;;
2558;SDS011;1289;53.488;10.006;2022-10-17T12:23:16;15.30;;;6.07;;
2558;SDS011;1289;53.488;10.006;2022-10-17T12:25:49;9.80;;;5.20;;
2558;SDS011;1289;53.488;10.006;2022-10-17T12:28:19;6.50;;;4.83;;
2558;SDS011;1289;53.488;10.006;2022-10-17T12:33:20;17.60;;;6.93;;
2558;SDS011;1289;53.488;10.006;2022-10-17T12:35:49;10.87;;;5.97;;
2558;SDS011;1289;53.488;10.006;2022-10-17T12:38:24;13.43;;;5.70;;
2558;SDS011;1289;53.488;10.006;2022-10-17T12:40:54;7.90;;;4.50;;
2558;SDS011;1289;53.488;10.006;2022-10-17T12:46:41;10.97;;;5.60;;
2558;SDS011;1289;53.488;10.006;2022-10-17T12:49:22;9.63;;;5.03;;
2558;SDS011;1289;53.488;10.006;2022-10-17T12:55:13;16.87;;;5.77;;
2558;SDS011;1289;53.488;10.006;2022-10-17T12:57:43;6.50;;;5.10;;
2558;SDS011;1289;53.488;10.006;2022-10-17T13:00:19;10.40;;;5.50;;
2558;SDS011;1289;53.488;10.006;2022-10-17T13:02:47;16.67;;;6.40;;
2558;SDS011;1289;53.488;10.006;2022-10-17T13:05:17;7.07;;;5.30;;
2558;SDS011;1289;53.488;10.006;2022-10-17T13:07:47;33.73;;;8.10;;
2558;SDS011;1289;53.488;10.006;2022-10-17T13:10:23;7.67;;;5.60;;
2558;SDS011;1289;53.488;10.006;2022-10-17T13:12:53;7.70;;;5.40;;
2558;SDS011;1289;53.488;10.006;2022-10-17T13:15:23;8.87;;;6.43;;
2558;SDS011;1289;53.488;10.006;2022-10-17T13:17:54;17.07;;;9.20;;
2558;SDS011;1289;53.488;10.006;2022-10-17T13:20:23;23.03;;;9.20;;
2558;SDS011;1289;53.488;10.006;2022-10-17T13:22:52;7.80;;;6.87;;
2558;SDS011;1289;53.488;10.006;2022-10-17T13:25:19;9.90;;;6.73;;
2558;SDS011;1289;53.488;10.006;2022-10-17T13:27:48;12.47;;;7.27;;
2558;SDS011;1289;53.488;10.006;2022-10-17T13:30:23;8.43;;;7.43;;
2558;SDS011;1289;53.488;10.006;2022-10-17T13:32:51;14.03;;;7.80;;
2558;SDS011;1289;53.488;10.006;2022-10-17T13:35:22;16.87;;;7.27;;
2558;SDS011;1289;53.488;10.006;2022-10-17T13:37:50;28.97;;;9.03;;
2558;SDS011;1289;53.488;10.006;2022-10-17T13:40:18;18.97;;;7.20;;
2558;SDS011;1289;53.488;10.006;2022-10-17T13:42:47;25.93;;;9.27;;
2558;SDS011;1289;53.488;10.006;2022-10-17T13:45:16;11.30;;;6.63;;
2558;SDS011;1289;53.488;10.006;2022-10-17T13:47:45;8.20;;;6.60;;
2558;SDS011;1289;53.488;10.006;2022-10-17T13:50:19;8.33;;;6.83;;
2558;SDS011;1289;53.488;10.006;2022-10-17T13:53:04;8.33;;;7.50;;
2558;SDS011;1289;53.488;10.006;2022-10-17T13:55:38;14.73;;;7.50;;
2558;SDS011;1289;53.488;10.006;2022-10-17T13:58:09;23.23;;;9.40;;
2558;SDS011;1289;53.488;10.006;2022-10-17T14:00:42;37.17;;;10.60;;
2558;SDS011;1289;53.488;10.006;2022-10-17T14:03:09;38.27;;;11.80;;
2558;SDS011;1289;53.488;10.006;2022-10-17T14:08:24;8.47;;;7.50;;
2558;SDS011;1289;53.488;10.006;2022-10-17T14:10:50;13.17;;;7.77;;
2558;SDS011;1289;53.488;10.006;2022-10-17T14:13:19;7.77;;;7.07;;
2558;SDS011;1289;53.488;10.006;2022-10-17T14:15:48;12.43;;;7.30;;
2558;SDS011;1289;53.488;10.006;2022-10-17T14:18:16;14.60;;;7.87;;
2558;SDS011;1289;53.488;10.006;2022-10-17T14:20:44;11.50;;;7.97;;
2558;SDS011;1289;53.488;10.006;2022-10-17T14:23:34;9.60;;;7.10;;
2558;SDS011;1289;53.488;10.006;2022-10-17T14:26:06;8.10;;;7.20;;
2558;SDS011;1289;53.488;10.006;2022-10-17T14:28:40;13.73;;;8.43;;
2558;SDS011;1289;53.488;10.006;2022-10-17T14:31:12;8.50;;;7.70;;
2558;SDS011;1289;53.488;10.006;2022-10-17T14:33:45;8.57;;;7.67;;
2558;SDS011;1289;53.488;10.006;2022-10-17T14:36:13;14.00;;;8.17;;
2558;SDS011;1289;53.488;10.006;2022-10-17T14:38:43;20.80;;;10.40;;
2558;SDS011;1289;53.488;10.006;2022-10-17T14:41:12;14.20;;;9.57;;
2558;SDS011;1289;53.488;10.006;2022-10-17T14:43:43;8.53;;;7.73;;
2558;SDS011;1289;53.488;10.006;2022-10-17T14:46:12;13.80;;;8.47;;
2558;SDS011;1289;53.488;10.006;2022-10-17T14:48:40;10.20;;;9.00;;
2558;SDS011;1289;53.488;10.006;2022-10-17T14:51:07;36.70;;;11.60;;
2558;SDS011;1289;53.488;10.006;2022-10-17T14:53:35;47.13;;;9.63;;
2558;SDS011;1289;53.488;10.006;2022-10-17T14:56:04;18.63;;;8.07;;
2558;SDS011;1289;53.488;10.006;2022-10-17T14:58:46;29.87;;;11.27;;
2558;SDS011;1289;53.488;10.006;2022-10-17T15:01:12;12.30;;;7.97;;
2558;SDS011;1289;53.488;10.006;2022-10-17T15:03:39;16.03;;;7.80;;
2558;SDS011;1289;53.488;10.006;2022-10-17T15:06:08;41.60;;;9.27;;
2558;SDS011;1289;53.488;10.006;2022-10-17T15:08:42;18.97;;;9.00;;
2558;SDS011;1289;53.488;10.006;2022-10-17T15:11:09;13.07;;;9.43;;
2558;SDS011;1289;53.488;10.006;2022-10-17T15:13:36;34.90;;;10.60;;
2558;SDS011;1289;53.488;10.006;2022-10-17T15:16:08;50.57;;;11.60;;
2558;SDS011;1289;53.488;10.006;2022-10-17T15:18:40;22.00;;;9.30;;
2558;SDS011;1289;53.488;10.006;2022-10-17T15:21:08;18.90;;;9.30;;
2558;SDS011;1289;53.488;10.006;2022-10-17T15:23:36;18.33;;;11.43;;
2558;SDS011;1289;53.488;10.006;2022-10-17T15:26:07;14.80;;;10.53;;
2558;SDS011;1289;53.488;10.006;2022-10-17T15:28:38;10.03;;;9.03;;
2558;SDS011;1289;53.488;10.006;2022-10-17T15:31:04;19.97;;;9.90;;
2558;SDS011;1289;53.488;10.006;2022-10-17T15:33:33;11.00;;;9.53;;
2558;SDS011;1289;53.488;10.006;2022-10-17T15:36:00;39.80;;;10.43;;
2558;SDS011;1289;53.488;10.006;2022-10-17T15:38:26;11.17;;;9.70;;